This is the latest recevied weather packets stored in our database for station/object WX6YYZ. If no packets are shown the sender has not sent any weather packets the latest 10 day(s).
| Time | Temp. | Humidity | Pressure | Rain* | Wind** | Luminosity | Snow |
|---|---|---|---|---|---|---|---|
| 1777766265 | 23.89° C | 53% | 1010.2 hPa | 0 mm | - | - | - |
| 1777764126 | 24.44° C | 53% | 1010.2 hPa | 0 mm | - | - | - |
| 1777758946 | 25° C | 54% | 1011.2 hPa | 0 mm | - | - | - |
| 1777758313 | 25° C | 53% | 1011.5 hPa | 0 mm | - | - | - |
| 1777751204 | 22.78° C | 62% | 1012.9 hPa | 0 mm | - | - | - |
| 1777750000 | 22.22° C | 64% | 1013.5 hPa | 0 mm | - | - | - |
| 1777747861 | 21.11° C | 70% | 1013.9 hPa | 0 mm | - | - | - |
| 1777744852 | 17.78° C | 81% | 1014.6 hPa | 0 mm | - | - | - |
| 1777744250 | 17.78° C | 83% | 1014.6 hPa | 0 mm | - | - | - |
| 1777743617 | 16.67° C | 86% | 1014.9 hPa | 0 mm | - | - | - |
| 1777743015 | 16.67° C | 86% | 1014.9 hPa | 0 mm | - | - | - |
| 1777741510 | 16.11° C | 91% | 1014.9 hPa | 0 mm | - | - | - |
| 1777739370 | 14.44° C | 94% | 1014.9 hPa | 0 mm | - | - | - |
| 1777738769 | 14.44° C | 94% | 1015.2 hPa | 0 mm | - | - | - |
| 1777736235 | 13.89° C | 94% | 1015.2 hPa | 0 mm | - | - | - |
| 1777735903 | 13.89° C | 94% | 1015.6 hPa | 0 mm | - | - | - |
| 1777734304 | 13.89° C | 94% | 1015.2 hPa | 0 mm | - | - | - |
| 1777732498 | 13.33° C | 94% | 1015.2 hPa | 0 mm | - | - | - |
| 1777732197 | 13.33° C | 94% | 1015.2 hPa | 0 mm | - | - | - |
| 1777731865 | 13.33° C | 94% | 1015.2 hPa | 0 mm | - | - | - |
| 1777731263 | 13.33° C | 94% | 1015.2 hPa | 0 mm | - | - | - |
| 1777726653 | 12.78° C | 94% | 1013.9 hPa | 0 mm | - | - | - |
| 1777726352 | 12.78° C | 94% | 1013.9 hPa | 0 mm | - | - | - |
| 1777724547 | 12.78° C | 93% | 1013.5 hPa | 0 mm | - | - | - |
| 1777722728 | 13.33° C | 93% | 1013.5 hPa | 0 mm | - | - | - |
* Rain latest hour (hover to see other rain measurements)
** Current wind speed in m/s (hover to see current wind gust speed)